Time;durP1;ratioP1;P1;durP2;ratioP2;P2;SDS_P1;SDS_P2;PMS_P1;PMS_P2;Temp;Humidity;BMP_temperature;BMP_pressure;BME280_temperature;BME280_humidity;BME280_pressure;Samples;Min_cycle;Max_cycle;Signal;HPM_P1;HPM_P2
2022/09/02 00:04:30;;;;;;;14.60;6.90;;;;;;;10.80;68.70;99146.65;432684;1270;98815;-41
2022/09/02 00:14:38;;;;;;;12.30;5.00;;;;;;;10.63;69.25;99142.69;433288;1269;112669;-40
2022/09/02 00:24:45;;;;;;;10.50;5.80;;;;;;;10.58;69.57;99138.50;432999;1270;108746;-40
2022/09/02 00:34:54;;;;;;;10.50;4.10;;;;;;;10.42;69.74;99135.64;432635;1270;98042;-41
2022/09/02 00:45:03;;;;;;;6.90;3.60;;;;;;;10.31;70.03;99126.23;432433;1270;108533;-42
2022/09/02 00:55:14;;;;;;;8.60;4.20;;;;;;;10.30;70.36;99119.50;432655;1270;99582;-42
2022/09/02 01:05:23;;;;;;;5.10;4.10;;;;;;;10.00;70.36;99120.05;432997;1270;112792;-42
2022/09/02 01:25:37;;;;;;;9.60;4.50;;;;;;;9.80;71.13;99116.98;433138;1270;99259;-41
2022/09/02 01:35:45;;;;;;;6.20;3.70;;;;;;;9.70;71.03;99118.13;432832;1269;109028;-41
2022/09/02 01:45:55;;;;;;;6.30;3.40;;;;;;;9.37;70.96;99117.27;433208;1268;98628;-41
2022/09/02 01:56:02;;;;;;;7.90;3.30;;;;;;;9.33;71.53;99111.73;433172;1270;112732;-41
2022/09/02 02:06:11;;;;;;;7.20;3.10;;;;;;;9.20;71.49;99109.58;433148;1269;108815;-42
2022/09/02 02:16:18;;;;;;;7.50;3.50;;;;;;;9.12;71.68;99104.96;433137;1269;99716;-41
2022/09/02 02:26:25;;;;;;;9.80;4.20;;;;;;;8.98;71.67;99104.91;433165;1270;107845;-41
2022/09/02 02:36:33;;;;;;;7.80;4.40;;;;;;;8.97;72.01;99105.00;433148;1270;99231;-41
2022/09/02 02:46:40;;;;;;;3.80;3.10;;;;;;;9.08;72.43;99099.45;432185;1270;112407;-40
2022/09/02 02:56:47;;;;;;;6.10;3.70;;;;;;;9.02;72.19;99098.29;432355;1270;108779;-40
2022/09/02 03:06:54;;;;;;;9.40;4.40;;;;;;;8.85;72.20;99096.11;432714;1270;98832;-42
2022/09/02 03:17:00;;;;;;;8.70;4.10;;;;;;;8.63;72.53;99095.64;433018;1270;109567;-41
2022/09/02 03:27:07;;;;;;;6.10;3.50;;;;;;;8.50;72.46;99093.00;432691;1270;99948;-43
2022/09/02 03:37:15;;;;;;;4.80;3.60;;;;;;;8.39;72.69;99096.63;433077;1270;112411;-41
2022/09/02 03:47:22;;;;;;;9.50;3.50;;;;;;;8.29;72.67;99097.79;433402;1269;109089;-40
2022/09/02 03:57:30;;;;;;;7.80;3.80;;;;;;;8.19;73.07;99100.13;433613;1270;98867;-41
2022/09/02 04:07:40;;;;;;;7.60;3.60;;;;;;;7.98;73.18;99100.55;433597;1270;107803;-41
2022/09/02 04:17:48;;;;;;;7.10;3.50;;;;;;;8.06;73.19;99109.33;433237;1269;98873;-41
2022/09/02 04:27:55;;;;;;;12.20;4.20;;;;;;;8.07;73.38;99122.54;432300;1270;113126;-42
2022/09/02 04:38:02;;;;;;;11.60;4.90;;;;;;;8.26;73.59;99122.54;432366;1270;108864;-42
2022/09/02 04:48:10;;;;;;;15.70;4.40;;;;;;;8.28;73.63;99119.11;432275;1270;99257;-42
2022/09/02 04:58:17;;;;;;;50.20;12.70;;;;;;;8.44;73.59;99123.86;433185;1270;108814;-42
2022/09/02 05:08:24;;;;;;;88.00;24.20;;;;;;;8.90;74.05;99121.20;432646;1270;99368;-41
2022/09/02 05:18:31;;;;;;;16.40;7.10;;;;;;;10.59;74.34;99124.96;432927;1269;112200;-42
2022/09/02 05:28:39;;;;;;;12.20;5.30;;;;;;;12.51;73.89;99109.64;432917;1270;108771;-42
2022/09/02 05:38:47;;;;;;;12.60;4.00;;;;;;;13.81;72.78;99111.72;432891;1270;98047;-42
2022/09/02 05:59:21;;;;;;;8.60;3.80;;;;;;;15.81;70.72;99106.42;433051;1269;99242;-41
2022/09/02 06:09:28;;;;;;;13.80;4.50;;;;;;;16.40;69.61;99107.48;432080;1269;1482457;-41
2022/09/02 06:19:36;;;;;;;8.70;4.20;;;;;;;16.80;68.78;99107.55;432979;1270;108855;-41
2022/09/02 06:29:44;;;;;;;10.60;4.30;;;;;;;16.94;68.12;99114.58;433103;1270;99236;-41
2022/09/02 06:39:51;;;;;;;7.30;5.20;;;;;;;17.83;67.57;99114.11;433150;1270;108829;-41
2022/09/02 06:50:02;;;;;;;12.90;5.70;;;;;;;18.24;66.18;99119.75;433372;1269;98014;-41
2022/09/02 07:00:11;;;;;;;10.80;4.60;;;;;;;18.86;65.83;99127.57;433105;1270;112670;-41
2022/09/02 07:10:18;;;;;;;6.40;2.70;;;;;;;19.36;64.37;99125.02;433276;1269;108892;-41
2022/09/02 07:20:26;;;;;;;6.90;2.70;;;;;;;18.92;63.15;99133.09;433319;1269;98711;-42
2022/09/02 07:30:34;;;;;;;6.70;2.00;;;;;;;18.87;62.44;99135.52;432905;1269;108876;-41
2022/09/02 07:40:42;;;;;;;4.20;1.30;;;;;;;18.47;61.26;99136.50;432959;1270;99245;-43
2022/09/02 07:50:50;;;;;;;2.70;2.20;;;;;;;18.46;60.71;99136.88;433184;1270;112542;-40
2022/09/02 08:00:57;;;;;;;1.90;1.50;;;;;;;18.58;59.97;99133.92;432835;1269;108774;-41
2022/09/02 08:31:19;;;;;;;3.90;1.30;;;;;;;19.04;57.51;99130.61;433555;1270;99254;-41
2022/09/02 08:41:31;;;;;;;2.30;1.10;;;;;;;19.40;57.93;99130.84;432968;1269;112276;-41
2022/09/02 08:51:40;;;;;;;1.70;0.80;;;;;;;19.81;56.86;99124.81;432413;1270;107697;-41
2022/09/02 09:01:49;;;;;;;3.00;1.10;;;;;;;19.97;55.10;99119.92;432886;1269;99328;-41
2022/09/02 09:11:54;;;;;;;1.20;0.50;;;;;;;19.77;53.82;99114.37;433237;1270;109035;-41
2022/09/02 09:22:02;;;;;;;1.80;0.50;;;;;;;19.81;53.39;99109.23;433015;1270;99238;-41
2022/09/02 09:32:21;;;;;;;0.30;0.30;;;;;;;19.51;52.36;99103.34;432844;1270;112521;-41
2022/09/02 09:42:33;;;;;;;0.50;0.50;;;;;;;19.57;51.26;99095.42;433149;1270;107464;-41
2022/09/02 09:52:41;;;;;;;3.90;0.50;;;;;;;19.60;51.24;99097.52;433039;1270;98016;-39
2022/09/02 10:02:49;;;;;;;2.80;0.70;;;;;;;19.37;50.64;99094.66;433352;1269;107680;-42
2022/09/02 10:33:31;;;;;;;3.40;0.80;;;;;;;19.78;47.24;99075.93;432802;1270;108795;-43
2022/09/02 10:43:42;;;;;;;2.00;0.80;;;;;;;19.09;47.99;99076.11;433059;1270;98092;-42
2022/09/02 10:53:55;;;;;;;0.90;0.70;;;;;;;18.91;48.66;99072.16;432616;1270;108873;-41
2022/09/02 11:04:18;;;;;;;3.70;0.60;;;;;;;18.73;48.42;99075.86;433204;1270;99043;-42
2022/09/02 11:14:29;;;;;;;0.90;0.50;;;;;;;19.11;48.99;99066.66;433349;1270;112470;-42
2022/09/02 11:24:45;;;;;;;0.60;0.50;;;;;;;19.03;47.55;99065.54;433056;1270;109190;-43
2022/09/02 11:34:55;;;;;;;1.10;0.40;;;;;;;19.14;48.25;99057.39;432510;1270;99250;-43
2022/09/02 11:45:27;;;;;;;1.30;0.90;;;;;;;19.62;48.30;99044.05;432928;1268;108821;-42
2022/09/02 11:55:32;;;;;;;1.30;0.90;;;;;;;19.18;47.07;99049.05;433417;1271;99178;-39
2022/09/02 12:16:10;;;;;;;;;;;;;;;18.77;47.75;99055.21;433421;1270;108859;-42
2022/09/02 12:26:19;;;;;;;2.80;0.70;;;;;;;18.49;48.44;99053.86;433423;1270;99284;-41
2022/09/02 12:36:46;;;;;;;4.70;0.80;;;;;;;18.44;49.02;99042.73;433296;1270;107292;-43
2022/09/02 12:46:56;;;;;;;;;;;;;;;18.60;49.77;99032.90;432423;1270;98008;-41
2022/09/02 12:57:04;;;;;;;1.70;0.90;;;;;;;18.80;49.90;99031.36;433517;1269;112082;-42
2022/09/02 13:07:32;;;;;;;1.30;0.70;;;;;;;18.78;48.73;99021.52;433474;1271;109858;-41
2022/09/02 13:17:46;;;;;;;4.20;0.80;;;;;;;18.67;47.99;99013.61;433080;1270;97997;-41
2022/09/02 13:28:18;;;;;;;0.80;0.60;;;;;;;18.71;47.91;99001.66;432426;1271;108250;-43
2022/09/02 13:48:39;;;;;;;1.60;0.70;;;;;;;18.90;47.98;98979.77;432910;1271;112362;-41
2022/09/02 13:58:51;;;;;;;1.90;0.50;;;;;;;19.32;46.70;98977.72;432582;1269;108606;-43
2022/09/02 14:09:01;;;;;;;4.80;0.90;;;;;;;18.90;46.73;98979.51;432696;1270;98837;-40
2022/09/02 14:19:07;;;;;;;1.80;0.80;;;;;;;18.65;47.73;98982.92;432411;1271;109234;-42
2022/09/02 14:29:15;;;;;;;1.80;0.60;;;;;;;18.61;47.54;98978.49;432760;1271;98970;-43
2022/09/02 14:39:22;;;;;;;1.50;0.50;;;;;;;18.63;47.54;98963.86;432295;1271;113063;-42
2022/09/02 14:49:29;;;;;;;9.20;1.20;;;;;;;19.10;46.41;98969.22;432313;1271;107809;-42
2022/09/02 14:59:36;;;;;;;2.20;0.80;;;;;;;19.25;46.89;98956.11;432617;1269;98834;-42
2022/09/02 15:09:44;;;;;;;2.00;0.70;;;;;;;19.03;46.88;98961.48;432246;1270;109290;-41
2022/09/02 15:19:52;;;;;;;5.50;1.00;;;;;;;18.51;46.33;98958.21;432779;1270;99369;-41
2022/09/02 15:29:59;;;;;;;3.60;2.30;;;;;;;18.02;47.09;98949.27;432810;1271;112422;-42
2022/09/02 15:50:11;;;;;;;29.80;4.40;;;;;;;17.37;48.58;98949.54;432910;1270;99227;-42
2022/09/02 16:00:18;;;;;;;2.70;1.30;;;;;;;17.55;49.48;98934.27;432813;1270;108869;-42
2022/09/02 16:10:26;;;;;;;7.40;1.10;;;;;;;17.90;49.66;98932.93;433013;1269;98936;-43
2022/09/02 16:20:33;;;;;;;3.40;0.80;;;;;;;18.08;48.80;98939.27;432651;1270;111473;-41
2022/09/02 16:30:40;;;;;;;4.10;0.80;;;;;;;17.91;47.97;98942.23;432440;1270;108809;-43
2022/09/02 16:40:57;;;;;;;5.60;1.70;;;;;;;17.46;48.33;98938.95;432421;1270;99252;-42
2022/09/02 16:51:05;;;;;;;7.20;2.50;;;;;;;16.99;48.54;98937.98;432934;1269;107792;-42
2022/09/02 17:01:11;;;;;;;20.30;13.60;;;;;;;16.68;49.70;98935.46;432759;1270;99232;-41
2022/09/02 17:21:24;;;;;;;5.90;2.10;;;;;;;15.99;51.08;98937.08;432805;1270;108867;-41
2022/09/02 17:52:06;;;;;;;15.40;8.10;;;;;;;14.78;53.77;98951.25;432927;1270;100043;-40
2022/09/02 18:12:46;;;;;;;12.60;7.20;;;;;;;14.35;55.25;98963.63;431486;1270;1517192;-41
2022/09/02 18:22:55;;;;;;;9.90;5.40;;;;;;;14.20;55.97;98965.33;432735;1270;98096;-41
2022/09/02 18:33:14;;;;;;;9.40;3.20;;;;;;;14.24;56.25;98971.58;433300;1270;108878;-42
2022/09/02 18:43:20;;;;;;;5.00;3.30;;;;;;;14.30;56.49;98971.42;433287;1270;99353;-43
2022/09/02 18:53:28;;;;;;;6.10;3.10;;;;;;;14.33;56.51;98974.03;433360;1270;112358;-41
2022/09/02 19:03:36;;;;;;;5.50;4.10;;;;;;;14.29;56.48;98974.88;432745;1270;108811;-40
2022/09/02 19:13:45;;;;;;;5.20;2.90;;;;;;;14.22;56.44;98974.83;433083;1270;98847;-41
2022/09/02 19:23:53;;;;;;;3.80;2.70;;;;;;;14.18;56.57;98972.80;433307;1269;108729;-42
2022/09/02 19:34:03;;;;;;;10.60;2.20;;;;;;;14.13;56.66;98972.14;433353;1270;99953;-39
2022/09/02 19:44:14;;;;;;;4.40;2.50;;;;;;;14.09;56.77;98980.38;433193;1270;112417;-41
2022/09/02 19:54:21;;;;;;;3.10;2.30;;;;;;;14.08;56.91;98987.23;433043;1270;109187;-43
2022/09/02 20:14:35;;;;;;;4.10;2.40;;;;;;;13.96;56.93;98984.92;433064;1270;108933;-42
2022/09/02 20:34:52;;;;;;;4.00;3.10;;;;;;;13.54;57.19;98986.67;433280;1269;112649;-42
2022/09/02 20:55:12;;;;;;;5.50;3.40;;;;;;;13.15;57.71;98985.43;433134;1270;99332;-43
2022/09/02 21:05:23;;;;;;;6.50;2.90;;;;;;;13.06;58.00;98985.50;433073;1269;109184;-42
2022/09/02 21:15:35;;;;;;;9.70;3.50;;;;;;;12.97;58.18;98989.12;433247;1269;99264;-41
2022/09/02 21:25:43;;;;;;;3.60;1.90;;;;;;;12.84;58.36;98994.02;433349;1270;112684;-41
2022/09/02 21:35:53;;;;;;;4.50;1.80;;;;;;;12.68;58.48;98994.39;433380;1270;108800;-42
2022/09/02 21:45:58;;;;;;;6.50;1.80;;;;;;;12.49;58.74;98997.70;433368;1269;100009;-41
2022/09/02 21:56:06;;;;;;;4.00;1.30;;;;;;;12.37;59.02;98998.30;433183;1269;107966;-42
2022/09/02 22:06:12;;;;;;;3.70;1.80;;;;;;;12.34;59.31;99003.02;433253;1269;98837;-42
2022/09/02 22:16:20;;;;;;;6.00;1.70;;;;;;;12.30;59.71;98997.07;433069;1269;112389;-42
2022/09/02 22:26:30;;;;;;;2.80;1.80;;;;;;;12.18;59.80;98985.94;433303;1269;108288;-42
2022/09/02 22:36:47;;;;;;;3.50;1.80;;;;;;;12.14;59.96;98988.92;433141;1270;98805;-42
2022/09/02 22:57:15;;;;;;;2.40;1.60;;;;;;;12.08;60.23;98986.51;433238;1269;99235;-41
2022/09/02 23:07:23;;;;;;;4.40;1.70;;;;;;;12.04;60.13;98978.68;433222;1270;113441;-42
2022/09/02 23:17:32;;;;;;;4.00;1.80;;;;;;;11.85;60.45;98976.95;433230;1270;108924;-42
2022/09/02 23:37:51;;;;;;;4.80;2.10;;;;;;;11.06;61.36;98972.58;433074;1270;108842;-40
2022/09/02 23:48:25;;;;;;;5.70;3.70;;;;;;;10.59;61.67;98967.02;433326;1270;99163;-41
2022/09/02 23:58:42;;;;;;;5.00;2.90;;;;;;;10.12;62.39;98968.27;433073;1270;112440;-41
